KLRD/LRD METAR and TAF weather

Enter ICAO airport designator
Station Type Date Time Source
KLRD METAR 2019/08/23 14:56 UTC NOAA

KLRD 231456Z 17006KT 10SM CLR 31/23 A2988 RMK AO2 SLP112 T03060233 50002


Station Type Date Time Source
KLRD Decoded METAR 2019/08/23 14:56 UTC NOAA

Station name not available
Aug 23, 2019 - 10:56 AM EDT / 2019.08.23 1456 UTC
Wind: from the S (170 degrees) at 7 MPH (6 KT):0
Visibility: 10 mile(s):0
Sky conditions: clear
Temperature: 87.1 F (30.6 C)
Heat index: 95.4 F (35.2 C):1
Dew Point: 73.9 F (23.3 C)
Relative Humidity: 65%
Pressure (altimeter): 29.88 in. Hg (1011 hPa)
Pressure tendency: 0.01 inches (0.2 hPa) higher than three hours ago
ob: KLRD 231456Z 17006KT 10SM CLR 31/23 A2988 RMK AO2 SLP112 T03060233 50002
cycle: 15

Station Type Date Time Source
KLRD TAF 2019/08/23 12:22 UTC NOAA

TAF KLRD 231120Z 2312/2412 13005KT P6SM SCT020
FM231500 13011KT P6SM SCT030
FM232000 11012KT P6SM SCT070
FM240100 12015G20KT P6SM SCT060
FM240600 13010KT P6SM SCT030

Example: see airport list